Terminal Aerodrome Forecast
Issued by NWS Buffalo, NY

Home | Current Version | Previous Version | Text Only | Print | Product List | Glossary On
Versions: 1 2 3 4 5 6 7 8 9 10 11 12 13 14 15 16 17 18 19 20 21 22 23 24 25
000
FTUS41 KBUF 271536 AAA
TAFROC
TAF AMD
KROC 271536Z 2716/2812 23010KT P6SM SCT030 BKN035
     FM271700 23011KT P6SM VCSH BKN080
     FM271900 23015KT P6SM VCTS SCT080CB
     FM272000 23015G22KT P6SM FEW250
     FM280300 22009KT 6SM -SHRA BKN070
     FM280700 23010KT P6SM VCSH BKN070=

USA.gov is the U.S. government's official web portal to all federal, state and local government web resources and services.